createdAt,value
2022-10-17T00:01:43.559Z,101010.72
2022-10-17T00:04:09.831Z,101002.47
2022-10-17T00:06:36.103Z,101010.34
2022-10-17T00:09:02.352Z,101007.03
2022-10-17T00:11:28.603Z,101004.44
2022-10-17T00:13:54.888Z,101009.22
2022-10-17T00:16:21.130Z,101013.03
2022-10-17T00:18:47.392Z,101015.13
2022-10-17T00:21:13.638Z,101014.75
2022-10-17T00:23:39.903Z,101004.28
2022-10-17T00:26:06.196Z,101005.75
2022-10-17T00:28:32.521Z,101011.91
2022-10-17T00:30:58.806Z,101015.72
2022-10-17T00:33:25.062Z,101019.50
2022-10-17T00:35:51.310Z,101012.25
2022-10-17T00:38:17.605Z,101013.84
2022-10-17T00:40:44.212Z,101011.28
2022-10-17T00:43:10.486Z,101012.41
2022-10-17T00:45:36.748Z,101011.41
2022-10-17T00:48:03.838Z,100996.94
2022-10-17T00:50:30.030Z,101008.31
2022-10-17T00:52:56.324Z,101012.47
2022-10-17T00:55:22.608Z,101012.09
2022-10-17T00:57:48.864Z,101018.97
2022-10-17T01:00:15.144Z,101012.72
2022-10-17T01:02:41.426Z,101009.13
2022-10-17T01:05:07.758Z,101012.94
2022-10-17T01:07:37.140Z,101021.41
2022-10-17T01:10:03.696Z,101016.00
2022-10-17T01:12:30.292Z,101014.25
2022-10-17T01:14:56.890Z,101013.97
2022-10-17T01:17:23.157Z,101023.50
2022-10-17T01:19:49.410Z,101016.03
2022-10-17T01:22:15.660Z,101014.44
2022-10-17T01:24:42.076Z,101010.19
2022-10-17T01:27:08.325Z,101008.16
2022-10-17T01:29:34.583Z,101015.41
2022-10-17T01:32:00.896Z,101010.44
2022-10-17T01:34:27.319Z,101009.25
2022-10-17T01:36:53.578Z,101005.59
2022-10-17T01:39:19.855Z,100999.94
2022-10-17T01:41:46.107Z,101009.03
2022-10-17T01:44:12.386Z,101013.44
2022-10-17T01:46:38.698Z,101011.09
2022-10-17T01:49:05.082Z,101016.25
2022-10-17T01:51:31.324Z,101015.91
2022-10-17T01:53:57.575Z,101015.91
2022-10-17T01:56:23.824Z,101015.50
2022-10-17T01:58:50.071Z,101017.00
2022-10-17T02:01:16.482Z,101016.78
2022-10-17T02:03:42.772Z,101016.78
2022-10-17T02:06:09.036Z,101010.75
2022-10-17T02:08:35.299Z,101003.28
2022-10-17T02:11:01.567Z,100995.91
2022-10-17T02:13:27.834Z,100993.84
2022-10-17T02:15:54.096Z,100985.00
2022-10-17T02:18:20.359Z,100994.09
2022-10-17T02:20:46.626Z,100991.25
2022-10-17T02:23:12.944Z,100989.03
2022-10-17T02:25:40.133Z,100996.25
2022-10-17T02:28:06.394Z,101000.81
2022-10-17T02:30:32.655Z,100995.28
2022-10-17T02:32:58.922Z,101002.53
2022-10-17T02:35:25.191Z,100994.53
2022-10-17T02:37:51.456Z,100993.44
2022-10-17T02:40:17.707Z,100993.44
2022-10-17T02:42:43.955Z,100994.31
2022-10-17T02:45:10.205Z,100987.94
2022-10-17T02:47:36.494Z,100992.34
2022-10-17T02:50:02.754Z,101004.25
2022-10-17T02:52:29.168Z,101003.41
2022-10-17T02:54:55.618Z,101005.09
2022-10-17T02:57:21.876Z,101005.09
2022-10-17T02:59:48.152Z,101016.66
2022-10-17T03:02:14.399Z,101003.41
2022-10-17T03:04:40.664Z,101001.66
2022-10-17T03:07:06.923Z,101009.91
2022-10-17T03:09:33.187Z,101002.91
2022-10-17T03:11:59.468Z,101002.75
2022-10-17T03:14:25.734Z,101003.75
2022-10-17T03:16:52.005Z,100997.84
2022-10-17T03:19:18.255Z,101000.66
2022-10-17T03:21:44.518Z,100996.97
2022-10-17T03:24:10.787Z,100997.53
2022-10-17T03:26:37.116Z,100997.88
2022-10-17T03:29:03.556Z,101007.50
2022-10-17T03:31:29.855Z,101014.72
2022-10-17T03:33:56.130Z,101009.94
2022-10-17T03:36:22.386Z,101016.78
2022-10-17T03:38:48.635Z,101009.66
2022-10-17T03:41:14.885Z,101018.84
2022-10-17T03:43:41.146Z,101026.59
2022-10-17T03:46:07.463Z,101019.88
2022-10-17T03:48:33.794Z,101025.75
2022-10-17T03:51:00.423Z,101023.78
2022-10-17T03:53:29.931Z,101020.84
2022-10-17T03:55:56.191Z,101018.69
2022-10-17T03:58:22.474Z,101025.91
2022-10-17T04:00:48.736Z,101029.34
2022-10-17T04:03:17.204Z,101028.94
2022-10-17T04:05:43.673Z,101021.59
2022-10-17T04:08:09.931Z,101033.28
2022-10-17T04:10:36.206Z,101036.31
2022-10-17T04:13:02.484Z,101029.09
2022-10-17T04:15:28.980Z,101038.03
2022-10-17T04:17:55.271Z,101040.00
2022-10-17T04:20:21.576Z,101041.19
2022-10-17T04:22:47.959Z,101042.78
2022-10-17T04:25:14.206Z,101049.75
2022-10-17T04:27:40.467Z,101040.56
2022-10-17T04:30:06.736Z,101048.44
2022-10-17T04:32:33.207Z,101047.34
2022-10-17T04:34:59.473Z,101038.88
2022-10-17T04:37:25.723Z,101049.69
2022-10-17T04:39:51.994Z,101048.50
2022-10-17T04:42:18.259Z,101054.75
2022-10-17T04:44:44.531Z,101055.84
2022-10-17T04:47:10.810Z,101057.69
2022-10-17T04:49:37.107Z,101059.28
2022-10-17T04:52:03.477Z,101060.91
2022-10-17T04:54:29.751Z,101061.75
2022-10-17T04:56:56.055Z,101067.03
2022-10-17T04:59:22.452Z,101067.38
2022-10-17T05:01:48.714Z,101069.09
2022-10-17T05:04:14.981Z,101071.78
2022-10-17T05:06:41.402Z,101069.97
2022-10-17T05:09:07.739Z,101068.13
2022-10-17T05:11:33.996Z,101076.25
2022-10-17T05:14:00.265Z,101068.88
2022-10-17T05:16:26.532Z,101073.44
2022-10-17T05:18:53.259Z,101068.88
2022-10-17T05:21:19.634Z,101076.25
2022-10-17T05:23:45.922Z,101084.56
2022-10-17T05:26:12.179Z,101082.59
2022-10-17T05:28:38.501Z,101079.91
2022-10-17T05:31:04.855Z,101085.19
2022-10-17T05:33:31.124Z,101089.63
2022-10-17T05:35:57.387Z,101094.91
2022-10-17T05:38:23.638Z,101089.16
2022-10-17T05:40:49.899Z,101095.53
2022-10-17T05:43:16.159Z,101098.25
2022-10-17T05:45:42.410Z,101099.84
2022-10-17T05:48:09.355Z,101101.56
2022-10-17T05:50:35.613Z,101101.06
2022-10-17T05:53:01.858Z,101104.25
2022-10-17T05:55:28.114Z,101105.25
2022-10-17T05:57:54.385Z,101106.00
2022-10-17T06:00:20.652Z,101105.91
2022-10-17T06:02:46.985Z,101108.13
2022-10-17T06:05:13.254Z,101113.53
2022-10-17T06:07:39.528Z,101114.16
2022-10-17T06:10:05.797Z,101112.56
2022-10-17T06:12:32.229Z,101114.78
2022-10-17T06:14:58.888Z,101109.28
2022-10-17T06:17:25.153Z,101117.16
2022-10-17T06:19:51.418Z,101116.19
2022-10-17T06:22:17.696Z,101126.88
2022-10-17T06:24:43.950Z,101128.59
2022-10-17T06:27:11.925Z,101127.25
2022-10-17T06:29:38.482Z,101137.34
2022-10-17T06:32:04.726Z,101144.22
2022-10-17T06:34:31.040Z,101143.75
2022-10-17T06:39:33.743Z,101147.50
2022-10-17T06:42:00.117Z,101158.38
2022-10-17T06:44:30.534Z,101151.63
2022-10-17T06:46:56.826Z,101161.59
2022-10-17T06:49:23.186Z,101146.50
2022-10-17T06:51:49.439Z,101153.31
2022-10-17T06:54:15.682Z,101150.88
2022-10-17T06:56:41.944Z,101160.25
2022-10-17T06:59:08.201Z,101157.53
2022-10-17T07:01:34.480Z,101164.31
2022-10-17T07:04:00.747Z,101171.59
2022-10-17T07:06:27.048Z,101172.47
2022-10-17T07:08:55.514Z,101169.16
2022-10-17T07:11:21.829Z,101176.69
2022-10-17T07:13:48.101Z,101170.53
2022-10-17T07:16:14.356Z,101177.53
2022-10-17T07:18:40.652Z,101174.47
2022-10-17T07:21:08.431Z,101186.53
2022-10-17T07:23:36.990Z,101178.91
2022-10-17T07:26:03.242Z,101183.44
2022-10-17T07:28:29.549Z,101185.97
2022-10-17T07:30:55.841Z,101182.72
2022-10-17T07:33:22.115Z,101190.16
2022-10-17T07:35:48.694Z,101186.16
2022-10-17T07:38:14.998Z,101191.59
2022-10-17T07:40:41.255Z,101182.00
2022-10-17T07:43:07.526Z,101178.28
2022-10-17T07:45:33.795Z,101185.34
2022-10-17T07:48:00.067Z,101187.50
2022-10-17T07:50:26.357Z,101189.63
2022-10-17T07:52:52.750Z,101196.69
2022-10-17T07:55:19.006Z,101187.91
2022-10-17T07:57:45.319Z,101192.97
2022-10-17T08:00:11.579Z,101196.84
2022-10-17T08:02:38.080Z,101201.78
2022-10-17T08:05:04.374Z,101191.47
2022-10-17T08:07:30.710Z,101199.00
2022-10-17T08:09:57.167Z,101195.78
2022-10-17T08:12:24.215Z,101191.78
2022-10-17T08:14:50.406Z,101199.28
2022-10-17T08:17:16.665Z,101196.63
2022-10-17T08:19:44.859Z,101190.00
2022-10-17T08:22:11.123Z,101197.72
2022-10-17T08:24:37.753Z,101194.31
2022-10-17T08:27:11.115Z,101199.84
2022-10-17T08:29:37.409Z,101194.56
2022-10-17T08:32:05.478Z,101196.44
2022-10-17T08:34:32.788Z,101198.50
2022-10-17T08:36:59.149Z,101192.94
2022-10-17T08:39:25.476Z,101197.84
2022-10-17T08:41:51.737Z,101189.69
2022-10-17T08:44:18.000Z,101190.88
2022-10-17T08:46:44.285Z,101194.31
2022-10-17T08:49:12.057Z,101191.31
2022-10-17T08:51:38.385Z,101192.22
2022-10-17T08:54:05.175Z,101191.75
2022-10-17T08:56:44.600Z,101206.00
2022-10-17T08:59:15.159Z,101197.19
2022-10-17T09:01:41.436Z,101197.22
2022-10-17T09:04:07.735Z,101203.63
2022-10-17T09:06:34.029Z,101195.44
2022-10-17T09:09:00.315Z,101196.03
2022-10-17T09:11:26.582Z,101198.50
2022-10-17T09:13:52.836Z,101198.34
2022-10-17T09:16:19.411Z,101199.50
2022-10-17T09:18:45.666Z,101200.97
2022-10-17T09:21:12.254Z,101197.84
2022-10-17T09:23:40.438Z,101198.84
2022-10-17T09:26:08.752Z,101196.00
2022-10-17T09:28:35.110Z,101209.88
2022-10-17T09:31:01.471Z,101193.72
2022-10-17T09:33:42.207Z,101200.69
2022-10-17T09:36:16.034Z,101190.41
2022-10-17T09:38:42.340Z,101193.72
2022-10-17T09:41:25.587Z,101193.72
2022-10-17T09:43:54.863Z,101196.47
2022-10-17T09:46:21.124Z,101194.19
2022-10-17T09:48:49.822Z,101193.91
2022-10-17T09:51:25.866Z,101197.34
2022-10-17T09:53:52.635Z,101195.34
2022-10-17T09:56:18.887Z,101196.19
2022-10-17T09:58:45.163Z,101196.19
2022-10-17T10:01:11.511Z,101184.16
2022-10-17T10:03:37.819Z,101185.59
2022-10-17T10:06:04.128Z,101179.41
2022-10-17T10:08:30.485Z,101178.13
2022-10-17T10:10:56.748Z,101188.53
2022-10-17T10:13:23.017Z,101194.75
2022-10-17T10:15:49.279Z,101198.00
2022-10-17T10:18:15.540Z,101200.75
2022-10-17T10:20:46.587Z,101195.00
2022-10-17T10:23:13.564Z,101199.03
2022-10-17T10:25:39.772Z,101190.13
2022-10-17T10:28:06.055Z,101196.25
2022-10-17T10:30:36.127Z,101192.19
2022-10-17T10:33:05.351Z,101202.09
2022-10-17T10:35:31.607Z,101198.34
2022-10-17T10:37:57.892Z,101201.94
2022-10-17T10:40:24.167Z,101199.63
2022-10-17T10:42:50.426Z,101195.16
2022-10-17T10:45:29.213Z,101182.50
2022-10-17T10:48:02.938Z,101169.31
2022-10-17T10:50:29.305Z,101171.47
2022-10-17T10:52:55.590Z,101173.34
2022-10-17T10:55:22.329Z,101169.00
2022-10-17T10:57:48.591Z,101167.47
2022-10-17T11:00:15.441Z,101167.16
2022-10-17T11:02:41.710Z,101166.66
2022-10-17T11:05:07.977Z,101182.59
2022-10-17T11:07:34.301Z,101179.75
2022-10-17T11:10:00.575Z,101179.63
2022-10-17T11:12:26.858Z,101168.84
2022-10-17T11:14:53.122Z,101166.41
2022-10-17T11:17:19.386Z,101169.56
2022-10-17T11:19:47.375Z,101161.38
2022-10-17T11:22:13.660Z,101175.03
2022-10-17T11:24:39.940Z,101164.38
2022-10-17T11:27:06.199Z,101161.00
2022-10-17T11:29:32.566Z,101163.75
2022-10-17T11:31:58.836Z,101155.56
2022-10-17T11:34:25.112Z,101152.75
2022-10-17T11:36:51.372Z,101146.72
2022-10-17T11:39:17.654Z,101144.94
2022-10-17T11:41:43.925Z,101142.09
2022-10-17T11:44:10.214Z,101150.31
2022-10-17T11:46:36.466Z,101144.47
2022-10-17T11:49:02.744Z,101139.94
2022-10-17T11:54:15.275Z,101124.47
2022-10-17T11:56:42.994Z,101121.75
2022-10-17T11:59:09.310Z,101115.69
2022-10-17T12:01:35.603Z,101116.66
2022-10-17T12:04:01.955Z,101111.91
2022-10-17T12:06:29.429Z,101116.31
2022-10-17T12:08:56.430Z,101104.88
2022-10-17T12:11:22.731Z,101103.16
2022-10-17T12:13:49.129Z,101106.59
2022-10-17T12:16:17.556Z,101094.44
2022-10-17T12:18:43.979Z,101086.31
2022-10-17T12:21:10.241Z,101091.28
2022-10-17T12:23:38.783Z,101090.47
2022-10-17T12:26:05.535Z,101087.59
2022-10-17T12:28:32.022Z,101080.59
2022-10-17T12:30:58.366Z,101085.25
2022-10-17T12:33:26.624Z,101079.25
2022-10-17T12:35:52.886Z,101091.75
2022-10-17T12:38:19.181Z,101088.00
2022-10-17T12:40:49.064Z,101077.25
2022-10-17T12:43:15.630Z,101072.78
2022-10-17T12:45:41.911Z,101061.84
2022-10-17T12:48:08.240Z,101066.66
2022-10-17T12:50:38.005Z,101062.88
2022-10-17T12:53:04.438Z,101066.53
2022-10-17T12:55:30.690Z,101061.56
2022-10-17T12:57:57.046Z,101056.63
2022-10-17T13:00:23.347Z,101060.41
2022-10-17T13:02:49.668Z,101061.09
2022-10-17T13:05:15.918Z,101069.47
2022-10-17T13:07:42.181Z,101055.63
2022-10-17T13:10:09.511Z,101059.00
2022-10-17T13:12:41.235Z,101065.09
2022-10-17T13:15:09.808Z,101060.00
2022-10-17T13:17:36.811Z,101054.75
2022-10-17T13:20:03.604Z,101064.25
2022-10-17T13:22:30.224Z,101052.63
2022-10-17T13:24:56.730Z,101053.34
2022-10-17T13:27:23.035Z,101060.00
2022-10-17T13:29:49.315Z,101066.47
2022-10-17T13:32:15.576Z,101073.59
2022-10-17T13:34:41.822Z,101067.63
2022-10-17T13:37:08.074Z,101056.69
2022-10-17T13:39:54.528Z,101063.00
2022-10-17T13:42:21.691Z,101049.47
2022-10-17T13:44:47.980Z,101065.19
2022-10-17T13:47:14.450Z,101058.97
2022-10-17T13:49:40.951Z,101057.97
2022-10-17T13:52:07.227Z,101062.41
2022-10-17T13:54:33.539Z,101051.63
2022-10-17T13:56:59.834Z,101059.47
2022-10-17T13:59:26.111Z,101054.22
2022-10-17T14:01:52.385Z,101061.69
2022-10-17T14:04:20.485Z,101072.94
2022-10-17T14:06:49.672Z,101066.25
2022-10-17T14:09:18.352Z,101066.97
2022-10-17T14:11:44.612Z,101063.88
2022-10-17T14:14:10.882Z,101066.66
2022-10-17T14:16:37.168Z,101076.16
2022-10-17T14:19:03.458Z,101064.72
2022-10-17T14:21:40.907Z,101070.59
2022-10-17T14:24:09.859Z,101068.47
2022-10-17T14:26:37.287Z,101063.91
2022-10-17T14:29:03.605Z,101070.13
2022-10-17T14:31:29.987Z,101076.38
2022-10-17T14:33:56.254Z,101073.97
2022-10-17T14:36:22.533Z,101073.28
2022-10-17T14:38:48.807Z,101077.19
2022-10-17T14:41:41.502Z,101071.97
2022-10-17T14:44:01.315Z,101074.44
2022-10-17T14:46:27.579Z,101071.44
2022-10-17T14:48:53.923Z,101078.63
2022-10-17T14:51:20.213Z,101079.84
2022-10-17T14:53:46.528Z,101086.09
2022-10-17T14:56:12.781Z,101094.66
2022-10-17T14:58:39.055Z,101082.44
2022-10-17T15:01:05.311Z,101092.66
2022-10-17T15:03:31.618Z,101089.13
2022-10-17T15:05:58.388Z,101094.88
2022-10-17T15:08:24.964Z,101094.97
2022-10-17T15:10:51.318Z,101095.81
2022-10-17T15:13:39.957Z,101101.59
2022-10-17T15:16:03.894Z,101102.06
2022-10-17T15:18:30.199Z,101097.31
2022-10-17T15:21:04.982Z,101101.97
2022-10-17T15:23:32.953Z,101100.28
2022-10-17T15:25:59.251Z,101103.69
2022-10-17T15:28:27.220Z,101118.72
2022-10-17T15:30:53.568Z,101115.56
2022-10-17T15:33:19.855Z,101120.78
2022-10-17T15:35:46.211Z,101116.16
2022-10-17T15:38:12.554Z,101115.72
2022-10-17T15:40:38.817Z,101110.25
2022-10-17T15:43:05.146Z,101126.81
2022-10-17T15:45:31.448Z,101130.69
2022-10-17T15:47:57.725Z,101124.25
2022-10-17T15:50:24.032Z,101122.50
2022-10-17T15:52:53.374Z,101133.00
2022-10-17T15:55:19.683Z,101135.34
2022-10-17T15:57:45.936Z,101134.75
2022-10-17T16:00:16.345Z,101139.66
2022-10-17T16:02:43.058Z,101137.41
2022-10-17T16:05:09.308Z,101142.13
2022-10-17T16:07:36.774Z,101139.84
2022-10-17T16:10:03.168Z,101135.69
2022-10-17T16:12:31.009Z,101126.69
2022-10-17T16:14:57.294Z,101133.44
2022-10-17T16:17:23.559Z,101136.59
2022-10-17T16:19:49.943Z,101132.63
2022-10-17T16:22:16.350Z,101128.31
2022-10-17T16:24:42.611Z,101133.91
2022-10-17T16:27:09.136Z,101136.75
2022-10-17T16:29:35.398Z,101148.06
2022-10-17T16:32:01.661Z,101156.41
2022-10-17T16:34:27.979Z,101152.47
2022-10-17T16:36:54.259Z,101151.34
2022-10-17T16:39:20.598Z,101148.50
2022-10-17T16:41:46.912Z,101149.75
2022-10-17T16:44:14.541Z,101145.19
2022-10-17T16:46:40.815Z,101149.78
2022-10-17T16:49:07.085Z,101152.63
2022-10-17T16:51:35.698Z,101160.53
2022-10-17T16:54:01.970Z,101156.06
2022-10-17T16:56:32.599Z,101157.78
2022-10-17T16:58:58.882Z,101161.63
2022-10-17T17:01:25.146Z,101158.78
2022-10-17T17:03:51.445Z,101160.50
2022-10-17T17:06:19.113Z,101160.22
2022-10-17T17:08:45.481Z,101164.66
2022-10-17T17:11:11.734Z,101167.50
2022-10-17T17:13:37.999Z,101171.25
2022-10-17T17:16:04.288Z,101174.50
2022-10-17T17:18:30.870Z,101181.81
2022-10-17T17:20:57.134Z,101182.78
2022-10-17T17:23:23.378Z,101177.78
2022-10-17T17:25:50.610Z,101181.50
2022-10-17T17:28:16.890Z,101174.06
2022-10-17T17:30:43.158Z,101181.50
2022-10-17T17:33:09.406Z,101186.47
2022-10-17T17:35:35.693Z,101185.63
2022-10-17T17:38:02.973Z,101186.22
2022-10-17T17:40:29.227Z,101178.59
2022-10-17T17:42:55.601Z,101183.28
2022-10-17T17:45:21.868Z,101187.28
2022-10-17T17:47:48.128Z,101177.44
2022-10-17T17:50:14.452Z,101187.16
2022-10-17T17:52:42.157Z,101184.56
2022-10-17T17:55:08.417Z,101180.16
2022-10-17T17:57:34.679Z,101188.47
2022-10-17T18:00:00.956Z,101194.47
2022-10-17T18:02:27.259Z,101189.78
2022-10-17T18:04:53.564Z,101187.91
2022-10-17T18:07:19.863Z,101185.06
2022-10-17T18:09:46.128Z,101183.59
2022-10-17T18:12:12.440Z,101183.59
2022-10-17T18:14:38.701Z,101173.75
2022-10-17T18:17:04.976Z,101179.59
2022-10-17T18:19:31.228Z,101170.19
2022-10-17T18:21:57.708Z,101171.56
2022-10-17T18:24:24.007Z,101177.84
2022-10-17T18:26:50.993Z,101170.41
2022-10-17T18:29:17.191Z,101175.84
2022-10-17T18:31:43.544Z,101185.81
2022-10-17T18:34:09.950Z,101190.59
2022-10-17T18:36:37.688Z,101184.75
2022-10-17T18:39:03.942Z,101178.75
2022-10-17T18:41:30.206Z,101181.13
2022-10-17T18:43:56.527Z,101175.91
2022-10-17T18:46:22.819Z,101181.91
2022-10-17T18:48:49.066Z,101176.97
2022-10-17T18:51:15.314Z,101183.41
2022-10-17T18:53:41.571Z,101181.13
2022-10-17T18:56:07.849Z,101177.16
2022-10-17T18:58:34.106Z,101178.06
2022-10-17T19:01:00.400Z,101177.69
2022-10-17T19:03:26.659Z,101176.56
2022-10-17T19:05:54.866Z,101181.66
2022-10-17T19:08:23.026Z,101176.69
2022-10-17T19:10:49.338Z,101172.78
2022-10-17T19:13:20.706Z,101175.28
2022-10-17T19:15:47.926Z,101175.72
2022-10-17T19:18:14.199Z,101176.94
2022-10-17T19:20:40.456Z,101174.97
2022-10-17T19:23:06.718Z,101165.72
2022-10-17T19:25:32.974Z,101169.53
2022-10-17T19:27:59.223Z,101173.16
2022-10-17T19:30:25.624Z,101171.84
2022-10-17T19:32:51.871Z,101178.00
2022-10-17T19:35:18.128Z,101187.75
2022-10-17T19:37:44.379Z,101190.13
2022-10-17T19:40:10.678Z,101188.47
2022-10-17T19:42:36.950Z,101195.53
2022-10-17T19:45:03.211Z,101191.59
2022-10-17T19:47:29.481Z,101192.13
2022-10-17T19:49:55.765Z,101187.16
2022-10-17T19:52:22.056Z,101196.50
2022-10-17T19:54:48.335Z,101203.03
2022-10-17T19:57:14.592Z,101200.22
2022-10-17T19:59:40.862Z,101215.00
2022-10-17T20:02:07.136Z,101215.09
2022-10-17T20:04:33.390Z,101214.97
2022-10-17T20:07:00.038Z,101214.72
2022-10-17T20:09:26.358Z,101217.94
2022-10-17T20:11:52.616Z,101217.06
2022-10-17T20:14:18.880Z,101221.34
2022-10-17T20:16:50.106Z,101221.09
2022-10-17T20:19:16.375Z,101218.16
2022-10-17T20:21:42.660Z,101222.47
2022-10-17T20:24:08.936Z,101233.34
2022-10-17T20:26:39.409Z,101230.16
2022-10-17T20:29:08.547Z,101231.06
2022-10-17T20:31:35.078Z,101235.31
2022-10-17T20:34:01.359Z,101240.84
2022-10-17T20:36:27.608Z,101230.91
2022-10-17T20:38:54.175Z,101241.22
2022-10-17T20:41:20.465Z,101239.66
2022-10-17T20:43:46.779Z,101232.25
2022-10-17T20:46:29.478Z,101240.88
2022-10-17T20:48:59.632Z,101245.19
2022-10-17T20:51:26.308Z,101239.53
2022-10-17T20:53:52.581Z,101258.28
2022-10-17T20:56:18.900Z,101259.41
2022-10-17T20:58:45.180Z,101251.94
2022-10-17T21:01:11.568Z,101258.59
2022-10-17T21:03:39.897Z,101253.44
2022-10-17T21:06:08.801Z,101254.06
2022-10-17T21:08:35.052Z,101256.91
2022-10-17T21:11:01.299Z,101251.97
2022-10-17T21:13:27.551Z,101245.34
2022-10-17T21:15:53.822Z,101242.03
2022-10-17T21:18:20.085Z,101239.31
2022-10-17T21:20:46.340Z,101241.28
2022-10-17T21:23:12.693Z,101248.91
2022-10-17T21:25:40.747Z,101249.28
2022-10-17T21:28:07.330Z,101241.28
2022-10-17T21:30:33.576Z,101244.63
2022-10-17T21:32:59.845Z,101244.75
2022-10-17T21:35:26.113Z,101234.16
2022-10-17T21:37:52.376Z,101234.38
2022-10-17T21:40:18.732Z,101229.59
2022-10-17T21:42:44.989Z,101232.66
2022-10-17T21:45:15.688Z,101234.75
2022-10-17T21:48:11.254Z,101243.13
2022-10-17T21:50:32.690Z,101246.91
2022-10-17T21:52:58.948Z,101250.09
2022-10-17T21:55:25.231Z,101240.13
2022-10-17T21:57:51.497Z,101236.56
2022-10-17T22:00:17.750Z,101233.75
2022-10-17T22:02:44.008Z,101242.38
2022-10-17T22:05:10.296Z,101244.41
2022-10-17T22:07:36.558Z,101251.19
2022-10-17T22:10:02.813Z,101252.59
2022-10-17T22:12:29.454Z,101261.53
2022-10-17T22:14:56.001Z,101260.81
2022-10-17T22:17:22.263Z,101258.50
2022-10-17T22:19:48.536Z,101255.63
2022-10-17T22:22:14.786Z,101257.63
2022-10-17T22:24:41.038Z,101256.03
2022-10-17T22:27:09.650Z,101260.44
2022-10-17T22:29:35.940Z,101252.88
2022-10-17T22:32:02.186Z,101261.91
2022-10-17T22:34:28.491Z,101268.06
2022-10-17T22:36:54.750Z,101260.34
2022-10-17T22:39:21.019Z,101276.34
2022-10-17T22:41:47.279Z,101279.03
2022-10-17T22:44:13.690Z,101265.72
2022-10-17T22:46:39.942Z,101278.81
2022-10-17T22:49:06.193Z,101268.91
2022-10-17T22:51:32.452Z,101273.72
2022-10-17T22:53:58.712Z,101274.59
2022-10-17T22:56:25.062Z,101269.56
2022-10-17T22:58:51.329Z,101270.88
2022-10-17T23:01:17.632Z,101273.78
2022-10-17T23:03:43.959Z,101272.56
2022-10-17T23:06:10.222Z,101264.09
2022-10-17T23:08:36.472Z,101262.25
2022-10-17T23:11:02.713Z,101271.56
2022-10-17T23:13:28.983Z,101272.63
2022-10-17T23:15:55.254Z,101267.00
2022-10-17T23:18:21.526Z,101275.53
2022-10-17T23:20:47.951Z,101267.59
2022-10-17T23:23:14.201Z,101264.38
2022-10-17T23:25:40.500Z,101259.81
2022-10-17T23:28:08.211Z,101265.56
2022-10-17T23:30:34.496Z,101264.06
2022-10-17T23:33:00.759Z,101257.63
2022-10-17T23:35:27.020Z,101265.50
2022-10-17T23:37:53.341Z,101264.81
2022-10-17T23:40:19.596Z,101256.59
2022-10-17T23:42:45.842Z,101265.31
2022-10-17T23:45:12.091Z,101266.31
2022-10-17T23:47:38.352Z,101251.81
2022-10-17T23:50:04.600Z,101256.59
2022-10-17T23:52:30.847Z,101244.69
2022-10-17T23:54:57.357Z,101252.72
2022-10-17T23:57:23.614Z,101249.59
2022-10-17T23:59:49.867Z,101259.66
